sensor_id;sensor_type;location;lat;lon;timestamp;pressure;altitude;pressure_sealevel;temperature;humidity
17781;BME280;8498;52.516;13.790;2022-07-10T00:00:12;101437.22;;;15.75;72.31
17781;BME280;8498;52.516;13.790;2022-07-10T00:05:34;101434.16;;;15.69;72.25
17781;BME280;8498;52.516;13.790;2022-07-10T00:10:57;101434.16;;;15.80;72.64
17781;BME280;8498;52.516;13.790;2022-07-10T00:16:19;101434.16;;;15.69;71.12
17781;BME280;8498;52.516;13.790;2022-07-10T00:21:42;101436.09;;;15.78;72.38
17781;BME280;8498;52.516;13.790;2022-07-10T00:27:04;101430.50;;;15.81;71.86
17781;BME280;8498;52.516;13.790;2022-07-10T00:32:27;101423.44;;;15.80;71.27
17781;BME280;8498;52.516;13.790;2022-07-10T00:37:49;101416.88;;;15.73;71.11
17781;BME280;8498;52.516;13.790;2022-07-10T00:43:11;101409.56;;;15.75;70.72
17781;BME280;8498;52.516;13.790;2022-07-10T00:48:34;101415.28;;;15.82;69.94
17781;BME280;8498;52.516;13.790;2022-07-10T00:53:58;101415.16;;;15.72;69.93
17781;BME280;8498;52.516;13.790;2022-07-10T00:59:22;101412.38;;;15.85;69.71
17781;BME280;8498;52.516;13.790;2022-07-10T01:04:45;101400.56;;;15.87;69.42
17781;BME280;8498;52.516;13.790;2022-07-10T01:10:07;101402.63;;;15.84;69.31
17781;BME280;8498;52.516;13.790;2022-07-10T01:15:31;101387.41;;;15.84;69.34
17781;BME280;8498;52.516;13.790;2022-07-10T01:20:56;101388.88;;;15.77;69.43
17781;BME280;8498;52.516;13.790;2022-07-10T01:26:20;101375.97;;;15.82;69.18
17781;BME280;8498;52.516;13.790;2022-07-10T01:31:43;101393.00;;;15.81;69.61
17781;BME280;8498;52.516;13.790;2022-07-10T01:37:07;101383.03;;;15.83;69.52
17781;BME280;8498;52.516;13.790;2022-07-10T01:42:30;101374.63;;;15.88;69.36
17781;BME280;8498;52.516;13.790;2022-07-10T01:47:52;101374.00;;;15.84;69.38
17781;BME280;8498;52.516;13.790;2022-07-10T01:53:15;101371.56;;;15.81;69.88
17781;BME280;8498;52.516;13.790;2022-07-10T01:58:38;101376.31;;;15.89;69.72
17781;BME280;8498;52.516;13.790;2022-07-10T02:04:02;101374.88;;;15.73;69.88
17781;BME280;8498;52.516;13.790;2022-07-10T02:09:43;101375.00;;;15.83;70.18
17781;BME280;8498;52.516;13.790;2022-07-10T02:15:06;101377.19;;;15.67;70.20
17781;BME280;8498;52.516;13.790;2022-07-10T02:20:28;101377.66;;;15.83;70.05
17781;BME280;8498;52.516;13.790;2022-07-10T02:25:51;101371.69;;;15.68;69.74
17781;BME280;8498;52.516;13.790;2022-07-10T02:31:13;101356.72;;;15.66;69.89
17781;BME280;8498;52.516;13.790;2022-07-10T02:36:36;101350.41;;;15.67;69.89
17781;BME280;8498;52.516;13.790;2022-07-10T02:42:01;101351.09;;;15.69;69.83
17781;BME280;8498;52.516;13.790;2022-07-10T02:47:24;101351.97;;;15.69;70.43
17781;BME280;8498;52.516;13.790;2022-07-10T02:52:46;101342.59;;;15.64;70.23
17781;BME280;8498;52.516;13.790;2022-07-10T02:58:08;101350.69;;;15.51;71.33
17781;BME280;8498;52.516;13.790;2022-07-10T03:03:31;101343.91;;;15.58;71.17
17781;BME280;8498;52.516;13.790;2022-07-10T03:08:54;101346.75;;;15.57;71.21
17781;BME280;8498;52.516;13.790;2022-07-10T03:14:16;101356.59;;;15.56;71.25
17781;BME280;8498;52.516;13.790;2022-07-10T03:19:40;101338.16;;;15.52;71.54
17781;BME280;8498;52.516;13.790;2022-07-10T03:25:03;101337.00;;;15.67;71.44
17781;BME280;8498;52.516;13.790;2022-07-10T03:30:26;101329.31;;;15.62;71.56
17781;BME280;8498;52.516;13.790;2022-07-10T03:35:48;101333.47;;;15.55;71.62
17781;BME280;8498;52.516;13.790;2022-07-10T03:41:10;101337.69;;;15.58;72.24
17781;BME280;8498;52.516;13.790;2022-07-10T03:46:33;101343.91;;;15.58;72.38
17781;BME280;8498;52.516;13.790;2022-07-10T03:51:59;101343.91;;;15.58;72.11
17781;BME280;8498;52.516;13.790;2022-07-10T03:57:23;101346.75;;;15.57;72.09
17781;BME280;8498;52.516;13.790;2022-07-10T04:03:05;101335.69;;;15.37;72.37
17781;BME280;8498;52.516;13.790;2022-07-10T04:08:28;101336.31;;;15.41;73.07
17781;BME280;8498;52.516;13.790;2022-07-10T04:13:50;101341.69;;;15.52;72.68
17781;BME280;8498;52.516;13.790;2022-07-10T04:19:13;101343.53;;;15.52;72.87
17781;BME280;8498;52.516;13.790;2022-07-10T04:24:35;101350.97;;;15.59;72.90
17781;BME280;8498;52.516;13.790;2022-07-10T04:29:58;101336.03;;;15.57;73.99
17781;BME280;8498;52.516;13.790;2022-07-10T04:35:22;101338.31;;;15.61;75.07
17781;BME280;8498;52.516;13.790;2022-07-10T04:40:44;101330.16;;;15.63;74.53
17781;BME280;8498;52.516;13.790;2022-07-10T04:46:06;101329.69;;;15.69;74.05
17781;BME280;8498;52.516;13.790;2022-07-10T04:51:29;101323.13;;;15.73;73.85
17781;BME280;8498;52.516;13.790;2022-07-10T04:56:52;101320.19;;;15.76;74.03
17781;BME280;8498;52.516;13.790;2022-07-10T05:02:14;101310.91;;;15.69;73.28
17781;BME280;8498;52.516;13.790;2022-07-10T05:07:36;101327.38;;;15.75;73.37
17781;BME280;8498;52.516;13.790;2022-07-10T05:12:59;101322.13;;;15.96;72.79
17781;BME280;8498;52.516;13.790;2022-07-10T05:18:22;101332.09;;;16.05;72.77
17781;BME280;8498;52.516;13.790;2022-07-10T05:23:44;101328.56;;;16.16;72.25
17781;BME280;8498;52.516;13.790;2022-07-10T05:29:07;101327.47;;;16.19;72.22
17781;BME280;8498;52.516;13.790;2022-07-10T05:34:29;101324.53;;;16.10;72.21
17781;BME280;8498;52.516;13.790;2022-07-10T05:39:52;101329.88;;;16.10;72.58
17781;BME280;8498;52.516;13.790;2022-07-10T05:45:14;101336.22;;;16.21;72.46
17781;BME280;8498;52.516;13.790;2022-07-10T05:50:37;101335.88;;;16.14;72.46
17781;BME280;8498;52.516;13.790;2022-07-10T05:56:00;101328.31;;;16.19;72.09
17781;BME280;8498;52.516;13.790;2022-07-10T06:01:24;101335.72;;;16.27;71.65
17781;BME280;8498;52.516;13.790;2022-07-10T06:06:46;101339.81;;;16.42;70.58
17781;BME280;8498;52.516;13.790;2022-07-10T06:12:09;101330.06;;;16.41;70.09
17781;BME280;8498;52.516;13.790;2022-07-10T06:17:31;101333.66;;;16.73;69.49
17781;BME280;8498;52.516;13.790;2022-07-10T06:22:54;101333.41;;;16.76;69.04
17781;BME280;8498;52.516;13.790;2022-07-10T06:28:17;101338.81;;;16.65;69.27
17781;BME280;8498;52.516;13.790;2022-07-10T06:33:39;101335.75;;;16.59;69.03
17781;BME280;8498;52.516;13.790;2022-07-10T06:39:02;101334.88;;;16.80;68.45
17781;BME280;8498;52.516;13.790;2022-07-10T06:44:24;101322.66;;;16.76;68.47
17781;BME280;8498;52.516;13.790;2022-07-10T06:49:47;101344.28;;;16.96;67.01
17781;BME280;8498;52.516;13.790;2022-07-10T06:55:10;101338.91;;;16.96;67.20
17781;BME280;8498;52.516;13.790;2022-07-10T07:00:33;101339.72;;;16.86;67.82
17781;BME280;8498;52.516;13.790;2022-07-10T07:05:55;101332.97;;;16.92;67.21
17781;BME280;8498;52.516;13.790;2022-07-10T07:11:18;101336.34;;;16.73;68.13
17781;BME280;8498;52.516;13.790;2022-07-10T07:16:40;101335.47;;;17.05;66.96
17781;BME280;8498;52.516;13.790;2022-07-10T07:22:08;101345.28;;;17.36;66.32
17781;BME280;8498;52.516;13.790;2022-07-10T07:27:50;101333.56;;;17.37;64.45
17781;BME280;8498;52.516;13.790;2022-07-10T07:33:13;101339.47;;;17.31;63.33
17781;BME280;8498;52.516;13.790;2022-07-10T07:38:35;101349.28;;;17.42;63.94
17781;BME280;8498;52.516;13.790;2022-07-10T07:43:58;101334.81;;;17.54;63.90
17781;BME280;8498;52.516;13.790;2022-07-10T07:49:22;101337.88;;;17.49;63.42
17781;BME280;8498;52.516;13.790;2022-07-10T07:54:44;101335.25;;;17.59;64.27
17781;BME280;8498;52.516;13.790;2022-07-10T08:00:08;101327.19;;;17.59;62.01
17781;BME280;8498;52.516;13.790;2022-07-10T08:05:33;101329.22;;;17.67;61.25
17781;BME280;8498;52.516;13.790;2022-07-10T08:10:55;101339.31;;;17.53;59.72
17781;BME280;8498;52.516;13.790;2022-07-10T08:16:18;101337.19;;;17.78;59.78
17781;BME280;8498;52.516;13.790;2022-07-10T08:21:40;101331.28;;;17.84;59.88
17781;BME280;8498;52.516;13.790;2022-07-10T08:27:03;101326.09;;;17.92;59.03
17781;BME280;8498;52.516;13.790;2022-07-10T08:32:26;101326.38;;;17.98;59.22
17781;BME280;8498;52.516;13.790;2022-07-10T08:37:49;101326.81;;;17.94;59.49
17781;BME280;8498;52.516;13.790;2022-07-10T08:43:12;101338.22;;;18.26;58.72
17781;BME280;8498;52.516;13.790;2022-07-10T08:48:36;101336.28;;;18.48;58.24
17781;BME280;8498;52.516;13.790;2022-07-10T08:54:00;101334.00;;;18.53;57.56
17781;BME280;8498;52.516;13.790;2022-07-10T08:59:24;101335.38;;;18.38;57.96
17781;BME280;8498;52.516;13.790;2022-07-10T09:04:52;101346.16;;;18.38;57.12
17781;BME280;8498;52.516;13.790;2022-07-10T09:10:15;101347.16;;;18.37;55.50
17781;BME280;8498;52.516;13.790;2022-07-10T09:15:37;101352.03;;;18.72;55.36
17781;BME280;8498;52.516;13.790;2022-07-10T09:21:06;101345.13;;;18.88;54.15
17781;BME280;8498;52.516;13.790;2022-07-10T09:26:31;101335.03;;;19.75;51.47
17781;BME280;8498;52.516;13.790;2022-07-10T09:32:01;101351.66;;;20.08;51.61
17781;BME280;8498;52.516;13.790;2022-07-10T09:37:25;101345.69;;;19.77;50.01
17781;BME280;8498;52.516;13.790;2022-07-10T09:42:49;101346.94;;;19.83;50.04
17781;BME280;8498;52.516;13.790;2022-07-10T09:48:11;101333.22;;;20.31;49.40
17781;BME280;8498;52.516;13.790;2022-07-10T09:59:15;101339.38;;;20.23;48.79
17781;BME280;8498;52.516;13.790;2022-07-10T10:04:41;101341.47;;;20.02;50.06
17781;BME280;8498;52.516;13.790;2022-07-10T10:10:06;101332.56;;;20.19;48.21
17781;BME280;8498;52.516;13.790;2022-07-10T10:15:31;101343.50;;;19.90;48.28
17781;BME280;8498;52.516;13.790;2022-07-10T10:20:55;101333.25;;;19.94;48.69
17781;BME280;8498;52.516;13.790;2022-07-10T10:26:18;101340.97;;;20.43;49.09
17781;BME280;8498;52.516;13.790;2022-07-10T10:31:43;101337.56;;;20.41;47.97
17781;BME280;8498;52.516;13.790;2022-07-10T10:37:06;101339.50;;;20.49;47.70
17781;BME280;8498;52.516;13.790;2022-07-10T10:42:36;101327.16;;;20.46;47.11
17781;BME280;8498;52.516;13.790;2022-07-10T10:48:08;101346.13;;;20.37;48.41
17781;BME280;8498;52.516;13.790;2022-07-10T10:54:04;101337.13;;;20.64;47.47
17781;BME280;8498;52.516;13.790;2022-07-10T10:59:47;101353.78;;;20.41;47.81
17781;BME280;8498;52.516;13.790;2022-07-10T11:10:35;101347.13;;;20.26;48.55
17781;BME280;8498;52.516;13.790;2022-07-10T11:15:58;101348.38;;;20.41;47.78
17781;BME280;8498;52.516;13.790;2022-07-10T11:21:23;101353.63;;;21.32;45.31
17781;BME280;8498;52.516;13.790;2022-07-10T11:27:06;101344.19;;;21.36;44.74
17781;BME280;8498;52.516;13.790;2022-07-10T11:32:33;101360.91;;;22.17;45.40
17781;BME280;8498;52.516;13.790;2022-07-10T11:37:56;101354.59;;;22.50;42.42
17781;BME280;8498;52.516;13.790;2022-07-10T11:43:20;101342.72;;;21.67;42.61
17781;BME280;8498;52.516;13.790;2022-07-10T11:48:48;101347.88;;;21.86;43.25
17781;BME280;8498;52.516;13.790;2022-07-10T11:54:16;101344.59;;;21.75;43.10
17781;BME280;8498;52.516;13.790;2022-07-10T11:59:40;101340.00;;;22.43;42.25
17781;BME280;8498;52.516;13.790;2022-07-10T12:05:03;101342.97;;;23.06;42.09
17781;BME280;8498;52.516;13.790;2022-07-10T12:10:30;101349.50;;;22.55;42.49
17781;BME280;8498;52.516;13.790;2022-07-10T12:15:53;101333.31;;;22.72;42.04
17781;BME280;8498;52.516;13.790;2022-07-10T12:21:16;101347.25;;;22.93;40.16
17781;BME280;8498;52.516;13.790;2022-07-10T12:26:40;101350.94;;;22.76;39.16
17781;BME280;8498;52.516;13.790;2022-07-10T12:32:06;101342.97;;;23.39;38.97
17781;BME280;8498;52.516;13.790;2022-07-10T12:37:29;101351.22;;;23.78;38.11
17781;BME280;8498;52.516;13.790;2022-07-10T12:43:01;101345.69;;;23.63;37.64
17781;BME280;8498;52.516;13.790;2022-07-10T12:48:23;101359.56;;;23.60;37.53
17781;BME280;8498;52.516;13.790;2022-07-10T12:53:46;101347.53;;;23.63;39.90
17781;BME280;8498;52.516;13.790;2022-07-10T12:59:13;101359.22;;;24.27;38.14
17781;BME280;8498;52.516;13.790;2022-07-10T13:04:37;101350.28;;;24.49;35.72
17781;BME280;8498;52.516;13.790;2022-07-10T13:10:06;101350.38;;;23.77;37.01
17781;BME280;8498;52.516;13.790;2022-07-10T13:15:29;101361.09;;;23.38;39.30
17781;BME280;8498;52.516;13.790;2022-07-10T13:20:54;101355.78;;;23.86;38.26
17781;BME280;8498;52.516;13.790;2022-07-10T13:26:22;101359.13;;;24.43;36.65
17781;BME280;8498;52.516;13.790;2022-07-10T13:31:45;101360.97;;;24.03;37.54
17781;BME280;8498;52.516;13.790;2022-07-10T13:37:08;101354.16;;;24.15;37.14
17781;BME280;8498;52.516;13.790;2022-07-10T13:42:34;101358.91;;;24.13;36.64
17781;BME280;8498;52.516;13.790;2022-07-10T13:47:56;101355.09;;;24.31;37.26
17781;BME280;8498;52.516;13.790;2022-07-10T13:53:19;101363.00;;;24.71;37.00
17781;BME280;8498;52.516;13.790;2022-07-10T13:58:42;101341.22;;;24.57;37.27
17781;BME280;8498;52.516;13.790;2022-07-10T14:04:05;101341.94;;;24.73;36.37
17781;BME280;8498;52.516;13.790;2022-07-10T14:09:28;101343.81;;;24.73;36.16
17781;BME280;8498;52.516;13.790;2022-07-10T14:14:51;101345.38;;;24.05;36.72
17781;BME280;8498;52.516;13.790;2022-07-10T14:20:14;101350.31;;;24.41;37.48
17781;BME280;8498;52.516;13.790;2022-07-10T14:25:36;101347.03;;;24.76;35.97
17781;BME280;8498;52.516;13.790;2022-07-10T14:31:00;101343.84;;;24.42;37.08
17781;BME280;8498;52.516;13.790;2022-07-10T14:36:25;101350.63;;;25.00;36.34
17781;BME280;8498;52.516;13.790;2022-07-10T14:41:51;101348.97;;;24.37;36.01
17781;BME280;8498;52.516;13.790;2022-07-10T14:47:13;101336.88;;;24.00;36.55
17781;BME280;8498;52.516;13.790;2022-07-10T14:52:37;101336.75;;;24.64;35.52
17781;BME280;8498;52.516;13.790;2022-07-10T14:58:01;101334.78;;;24.19;36.42
17781;BME280;8498;52.516;13.790;2022-07-10T15:03:24;101332.72;;;23.82;37.67
17781;BME280;8498;52.516;13.790;2022-07-10T15:08:47;101342.28;;;23.45;38.03
17781;BME280;8498;52.516;13.790;2022-07-10T15:14:13;101331.50;;;24.62;36.86
17781;BME280;8498;52.516;13.790;2022-07-10T15:19:36;101314.06;;;24.79;35.50
17781;BME280;8498;52.516;13.790;2022-07-10T15:24:58;101313.88;;;23.88;37.98
17781;BME280;8498;52.516;13.790;2022-07-10T15:30:22;101324.16;;;23.46;38.85
17781;BME280;8498;52.516;13.790;2022-07-10T15:35:44;101320.81;;;23.03;40.08
17781;BME280;8498;52.516;13.790;2022-07-10T15:41:07;101315.53;;;22.85;39.38
17781;BME280;8498;52.516;13.790;2022-07-10T15:46:30;101311.94;;;22.60;40.04
17781;BME280;8498;52.516;13.790;2022-07-10T15:51:53;101304.38;;;23.04;39.35
17781;BME280;8498;52.516;13.790;2022-07-10T15:57:16;101296.91;;;23.06;39.36
17781;BME280;8498;52.516;13.790;2022-07-10T16:02:38;101300.19;;;23.73;36.63
17781;BME280;8498;52.516;13.790;2022-07-10T16:08:01;101291.53;;;24.48;36.56
17781;BME280;8498;52.516;13.790;2022-07-10T16:13:24;101283.81;;;24.37;37.35
17781;BME280;8498;52.516;13.790;2022-07-10T16:18:46;101293.56;;;24.15;36.13
17781;BME280;8498;52.516;13.790;2022-07-10T16:24:10;101288.75;;;24.33;35.58
17781;BME280;8498;52.516;13.790;2022-07-10T16:29:33;101288.75;;;23.94;36.36
17781;BME280;8498;52.516;13.790;2022-07-10T16:34:55;101281.16;;;24.29;36.32
17781;BME280;8498;52.516;13.790;2022-07-10T16:40:22;101286.94;;;24.26;36.25
17781;BME280;8498;52.516;13.790;2022-07-10T16:45:45;101292.81;;;23.51;37.21
17781;BME280;8498;52.516;13.790;2022-07-10T16:51:09;101275.56;;;23.83;36.99
17781;BME280;8498;52.516;13.790;2022-07-10T16:56:40;101283.53;;;24.24;37.44
17781;BME280;8498;52.516;13.790;2022-07-10T17:02:03;101279.50;;;24.11;37.24
17781;BME280;8498;52.516;13.790;2022-07-10T17:07:26;101293.03;;;23.81;39.03
17781;BME280;8498;52.516;13.790;2022-07-10T17:12:49;101291.00;;;23.11;39.06
17781;BME280;8498;52.516;13.790;2022-07-10T17:18:11;101296.72;;;22.67;39.55
17781;BME280;8498;52.516;13.790;2022-07-10T17:23:34;101293.94;;;22.19;39.83
17781;BME280;8498;52.516;13.790;2022-07-10T17:28:56;101288.97;;;22.06;40.59
17781;BME280;8498;52.516;13.790;2022-07-10T17:34:19;101287.44;;;22.04;41.00
17781;BME280;8498;52.516;13.790;2022-07-10T17:39:42;101295.56;;;22.04;41.11
17781;BME280;8498;52.516;13.790;2022-07-10T17:45:07;101288.97;;;21.98;41.46
17781;BME280;8498;52.516;13.790;2022-07-10T17:50:37;101294.09;;;21.83;41.21
17781;BME280;8498;52.516;13.790;2022-07-10T17:56:01;101300.16;;;21.77;41.37
17781;BME280;8498;52.516;13.790;2022-07-10T18:01:23;101299.94;;;21.71;41.62
17781;BME280;8498;52.516;13.790;2022-07-10T18:06:47;101302.16;;;21.41;41.79
17781;BME280;8498;52.516;13.790;2022-07-10T18:12:09;101298.25;;;21.36;41.98
17781;BME280;8498;52.516;13.790;2022-07-10T18:17:33;101305.63;;;21.26;42.45
17781;BME280;8498;52.516;13.790;2022-07-10T18:22:56;101312.25;;;21.13;42.85
17781;BME280;8498;52.516;13.790;2022-07-10T18:28:18;101309.78;;;21.02;43.43
17781;BME280;8498;52.516;13.790;2022-07-10T18:33:41;101313.59;;;20.92;43.22
17781;BME280;8498;52.516;13.790;2022-07-10T18:39:23;101318.22;;;20.81;43.69
17781;BME280;8498;52.516;13.790;2022-07-10T18:44:46;101319.06;;;20.82;43.92
17781;BME280;8498;52.516;13.790;2022-07-10T18:50:11;101314.75;;;20.54;44.07
17781;BME280;8498;52.516;13.790;2022-07-10T18:55:33;101322.16;;;20.51;44.62
17781;BME280;8498;52.516;13.790;2022-07-10T19:00:56;101320.28;;;20.34;44.86
17781;BME280;8498;52.516;13.790;2022-07-10T19:06:19;101327.41;;;20.26;45.20
17781;BME280;8498;52.516;13.790;2022-07-10T19:11:43;101335.34;;;20.27;45.27
17781;BME280;8498;52.516;13.790;2022-07-10T19:17:06;101335.88;;;20.13;46.64
17781;BME280;8498;52.516;13.790;2022-07-10T19:22:31;101343.47;;;20.00;46.86
17781;BME280;8498;52.516;13.790;2022-07-10T19:27:54;101347.94;;;19.82;47.82
17781;BME280;8498;52.516;13.790;2022-07-10T19:33:18;101349.00;;;19.61;48.52
17781;BME280;8498;52.516;13.790;2022-07-10T19:38:42;101352.97;;;19.57;48.48
17781;BME280;8498;52.516;13.790;2022-07-10T19:44:05;101366.59;;;19.56;48.13
17781;BME280;8498;52.516;13.790;2022-07-10T19:49:29;101370.88;;;19.39;49.69
17781;BME280;8498;52.516;13.790;2022-07-10T19:54:52;101379.38;;;19.25;49.73
17781;BME280;8498;52.516;13.790;2022-07-10T20:00:14;101386.06;;;19.01;51.00
17781;BME280;8498;52.516;13.790;2022-07-10T20:05:38;101374.31;;;18.83;51.87
17781;BME280;8498;52.516;13.790;2022-07-10T20:11:01;101389.44;;;18.65;51.42
17781;BME280;8498;52.516;13.790;2022-07-10T20:16:24;101390.44;;;18.64;52.08
17781;BME280;8498;52.516;13.790;2022-07-10T20:21:47;101389.25;;;18.57;52.29
17781;BME280;8498;52.516;13.790;2022-07-10T20:27:10;101394.75;;;18.46;53.32
17781;BME280;8498;52.516;13.790;2022-07-10T20:32:32;101393.53;;;18.19;53.93
17781;BME280;8498;52.516;13.790;2022-07-10T20:37:55;101399.84;;;18.09;54.60
17781;BME280;8498;52.516;13.790;2022-07-10T20:43:18;101394.78;;;18.06;54.22
17781;BME280;8498;52.516;13.790;2022-07-10T20:48:40;101397.00;;;18.01;54.57
17781;BME280;8498;52.516;13.790;2022-07-10T20:54:03;101400.63;;;17.90;55.00
17781;BME280;8498;52.516;13.790;2022-07-10T20:59:26;101395.28;;;17.69;56.15
17781;BME280;8498;52.516;13.790;2022-07-10T21:04:49;101402.22;;;17.51;57.60
17781;BME280;8498;52.516;13.790;2022-07-10T21:10:11;101407.06;;;17.36;57.48
17781;BME280;8498;52.516;13.790;2022-07-10T21:15:34;101409.84;;;17.14;58.76
17781;BME280;8498;52.516;13.790;2022-07-10T21:20:57;101414.09;;;16.96;60.04
17781;BME280;8498;52.516;13.790;2022-07-10T21:26:19;101415.63;;;16.77;60.79
17781;BME280;8498;52.516;13.790;2022-07-10T21:31:42;101419.53;;;16.62;62.34
17781;BME280;8498;52.516;13.790;2022-07-10T21:37:05;101418.09;;;16.47;63.04
17781;BME280;8498;52.516;13.790;2022-07-10T21:42:27;101426.88;;;16.38;63.83
17781;BME280;8498;52.516;13.790;2022-07-10T21:47:50;101428.84;;;16.25;64.75
17781;BME280;8498;52.516;13.790;2022-07-10T21:53:13;101421.03;;;16.10;65.93
17781;BME280;8498;52.516;13.790;2022-07-10T21:58:35;101431.03;;;15.97;66.60
17781;BME280;8498;52.516;13.790;2022-07-10T22:03:58;101430.53;;;15.92;66.09
17781;BME280;8498;52.516;13.790;2022-07-10T22:09:21;101427.09;;;15.90;66.38
17781;BME280;8498;52.516;13.790;2022-07-10T22:14:44;101438.94;;;15.88;66.49
17781;BME280;8498;52.516;13.790;2022-07-10T22:20:08;101433.94;;;15.83;66.75
17781;BME280;8498;52.516;13.790;2022-07-10T22:25:31;101428.81;;;15.80;67.07
17781;BME280;8498;52.516;13.790;2022-07-10T22:30:54;101432.22;;;15.82;67.39
17781;BME280;8498;52.516;13.790;2022-07-10T22:36:35;101424.66;;;15.65;68.36
17781;BME280;8498;52.516;13.790;2022-07-10T22:41:57;101431.59;;;15.56;68.79
17781;BME280;8498;52.516;13.790;2022-07-10T22:47:21;101419.94;;;15.45;69.79
17781;BME280;8498;52.516;13.790;2022-07-10T22:52:43;101418.53;;;15.28;70.22
17781;BME280;8498;52.516;13.790;2022-07-10T22:58:06;101416.19;;;15.12;70.54
17781;BME280;8498;52.516;13.790;2022-07-10T23:03:30;101421.75;;;15.09;71.01
17781;BME280;8498;52.516;13.790;2022-07-10T23:08:52;101412.78;;;15.10;71.47
17781;BME280;8498;52.516;13.790;2022-07-10T23:14:15;101415.38;;;15.23;71.65
17781;BME280;8498;52.516;13.790;2022-07-10T23:19:38;101414.91;;;15.29;72.46
17781;BME280;8498;52.516;13.790;2022-07-10T23:25:01;101414.34;;;15.36;72.48
17781;BME280;8498;52.516;13.790;2022-07-10T23:30:25;101412.63;;;15.35;72.19
17781;BME280;8498;52.516;13.790;2022-07-10T23:35:47;101410.66;;;15.37;72.66
17781;BME280;8498;52.516;13.790;2022-07-10T23:41:10;101411.00;;;15.57;71.77
17781;BME280;8498;52.516;13.790;2022-07-10T23:46:34;101407.63;;;15.77;70.14
17781;BME280;8498;52.516;13.790;2022-07-10T23:51:57;101405.09;;;15.87;68.67
17781;BME280;8498;52.516;13.790;2022-07-10T23:57:21;101409.59;;;16.08;67.19
